CST,Max TemperatureF,Mean TemperatureF,Min TemperatureF,Max Dew PointF,MeanDew PointF,Min DewpointF,Max Humidity, Mean Humidity, Min Humidity, Max Sea Level PressureIn, Mean Sea Level PressureIn, Min Sea Level PressureIn, Max VisibilityMiles, Mean VisibilityMiles, Min VisibilityMiles, Max Wind SpeedMPH, Mean Wind SpeedMPH, Max Gust SpeedMPH,PrecipitationIn, CloudCover, Events, WindDirDegrees
2014-2-1,19,4,-11,9,0,-17,85,71,58,30.19,29.98,29.89,10,9,1,15,3,22,0.00,6,Snow,298
2014-2-2,14,-4,-23,0,-12,-31,84,69,53,30.25,30.21,30.17,10,10,10,13,3,,0.00,0,,223
2014-2-3,17,0,-18,1,-11,-24,84,67,45,30.35,30.21,30.14,10,9,2,9,1,16,0.00,1,Snow,320
2014-2-4,8,-2,-11,-6,-10,-18,85,66,52,30.49,30.43,30.35,10,10,10,13,3,,0.00,1,,328
2014-2-5,5,0,-4,-6,-10,-15,78,65,60,30.51,30.48,30.43,10,9,4,13,8,16,0.00,7,Snow,321
2014-2-6,3,-5,-13,-8,-12,-18,85,70,55,30.43,30.28,30.14,10,10,3,16,6,22,0.00,0,Snow,253
2014-2-7,10,-2,-13,-6,-11,-18,84,65,44,30.13,30.10,30.08,10,10,2,14,7,17,0.00,0,Snow,233
2014-2-8,14,-4,-22,3,-11,-29,79,70,57,30.16,30.11,30.07,10,10,10,7,1,,0.00,2,,242
2014-2-9,6,0,-5,-6,-11,-15,72,61,48,30.36,30.26,30.16,10,10,3,13,7,18,0.00,1,,322
2014-2-10,6,-6,-20,-8,-16,-27,77,64,48,30.44,30.42,30.37,10,10,10,10,4,,0.00,0,,310
2014-2-11,14,-6,-25,9,-12,-33,85,66,45,30.43,30.22,30.02,10,9,2,16,4,23,0.00,3,Snow,176
2014-2-12,23,18,12,14,8,3,86,72,43,30.09,29.99,29.76,10,8,2,8,2,,0.00,4,Snow,223
2014-2-13,26,19,12,23,13,5,86,77,64,29.75,29.56,29.39,10,6,1,24,10,33,0.03,7,Snow,280
2014-2-14,14,4,-7,5,-3,-13,85,67,48,30.00,29.91,29.72,10,10,2,13,6,18,0.00,1,Snow,336
2014-2-15,17,3,-11,10,0,-17,85,74,67,30.07,29.90,29.79,10,8,2,9,1,,0.00,5,Snow,129
2014-2-16,19,5,-9,10,3,-17,85,69,53,30.24,30.13,29.99,10,9,1,10,4,16,0.00,4,Snow,116
2014-2-17,26,16,6,21,15,3,93,79,68,29.99,29.76,29.67,10,5,0,15,6,23,0.07,7,Fog-Rain-Snow,142
2014-2-18,37,22,6,27,18,3,93,79,56,29.72,29.61,29.53,10,7,2,10,2,,0.00,1,,269
2014-2-19,41,22,3,28,19,0,93,75,52,29.79,29.74,29.67,10,10,5,8,3,,0.00,2,,189
2014-2-20,33,25,15,30,26,12,100,85,75,29.67,29.50,29.28,10,5,0,26,6,37,0.42,7,Snow,32
2014-2-21,14,10,6,12,4,0,93,72,62,29.70,29.46,29.26,10,7,1,22,17,34,0.00,6,Snow,287
2014-2-22,15,8,1,1,-1,-6,78,65,53,30.07,29.90,29.70,10,10,5,16,10,22,0.00,0,,277
2014-2-23,19,10,0,3,-2,-8,78,63,46,30.21,30.15,30.07,10,9,1,16,9,24,0.00,0,Snow,280
2014-2-24,14,5,-4,1,-5,-9,78,62,45,30.29,30.26,30.21,10,10,7,14,8,18,0.00,2,Snow,301
2014-2-25,8,-2,-13,-8,-13,-20,77,60,44,30.30,30.26,30.22,10,10,1,17,7,24,0.00,0,Snow,295
2014-2-26,17,2,-13,3,-11,-22,77,60,44,30.28,29.85,29.56,10,9,0,24,6,33,0.00,4,Snow,293
2014-2-27,0,-12,-25,-22,-27,-33,69,49,30,30.18,30.10,29.94,10,10,10,15,2,24,0.00,0,,324
2014-2-28,12,-6,-23,1,-11,-31,78,60,48,30.17,29.97,29.87,10,10,10,9,0,,0.00,5,Snow,264